sensor_id;sensor_type;location;lat;lon;timestamp;P1;durP1;ratioP1;P2;durP2;ratioP2
59998;SDS011;45859;51.378;6.736;2023-11-21T00:00:56;16.10;;;7.57;;
59998;SDS011;45859;51.378;6.736;2023-11-21T00:03:32;18.23;;;7.43;;
59998;SDS011;45859;51.378;6.736;2023-11-21T00:06:33;22.73;;;8.23;;
59998;SDS011;45859;51.378;6.736;2023-11-21T00:09:42;17.90;;;7.77;;
59998;SDS011;45859;51.378;6.736;2023-11-21T00:12:11;17.43;;;8.03;;
59998;SDS011;45859;51.378;6.736;2023-11-21T00:14:46;21.83;;;8.03;;
59998;SDS011;45859;51.378;6.736;2023-11-21T00:17:20;19.27;;;7.47;;
59998;SDS011;45859;51.378;6.736;2023-11-21T00:19:46;22.63;;;8.87;;
59998;SDS011;45859;51.378;6.736;2023-11-21T00:22:12;17.70;;;7.80;;
59998;SDS011;45859;51.378;6.736;2023-11-21T00:24:44;21.50;;;7.80;;
59998;SDS011;45859;51.378;6.736;2023-11-21T00:30:04;17.20;;;7.17;;
59998;SDS011;45859;51.378;6.736;2023-11-21T00:32:47;27.20;;;8.33;;
59998;SDS011;45859;51.378;6.736;2023-11-21T00:35:16;22.30;;;8.67;;
59998;SDS011;45859;51.378;6.736;2023-11-21T00:43:42;21.17;;;9.07;;
59998;SDS011;45859;51.378;6.736;2023-11-21T00:46:27;16.97;;;8.17;;
59998;SDS011;45859;51.378;6.736;2023-11-21T00:49:18;19.00;;;7.73;;
59998;SDS011;45859;51.378;6.736;2023-11-21T00:51:46;41.03;;;21.17;;
59998;SDS011;45859;51.378;6.736;2023-11-21T00:54:23;16.67;;;7.33;;
59998;SDS011;45859;51.378;6.736;2023-11-21T00:56:49;23.33;;;8.20;;
59998;SDS011;45859;51.378;6.736;2023-11-21T00:59:21;22.73;;;8.80;;
59998;SDS011;45859;51.378;6.736;2023-11-21T01:01:51;17.10;;;7.20;;
59998;SDS011;45859;51.378;6.736;2023-11-21T01:04:20;17.43;;;7.57;;
59998;SDS011;45859;51.378;6.736;2023-11-21T01:06:55;19.50;;;8.00;;
59998;SDS011;45859;51.378;6.736;2023-11-21T01:09:30;16.93;;;7.77;;
59998;SDS011;45859;51.378;6.736;2023-11-21T01:12:12;19.30;;;7.67;;
59998;SDS011;45859;51.378;6.736;2023-11-21T01:14:50;19.33;;;7.90;;
59998;SDS011;45859;51.378;6.736;2023-11-21T01:17:22;19.00;;;9.50;;
59998;SDS011;45859;51.378;6.736;2023-11-21T01:19:55;15.03;;;7.80;;
59998;SDS011;45859;51.378;6.736;2023-11-21T01:22:51;18.80;;;9.00;;
59998;SDS011;45859;51.378;6.736;2023-11-21T01:25:36;23.80;;;8.87;;
59998;SDS011;45859;51.378;6.736;2023-11-21T01:28:11;22.23;;;8.23;;
59998;SDS011;45859;51.378;6.736;2023-11-21T01:33:24;17.80;;;8.10;;
59998;SDS011;45859;51.378;6.736;2023-11-21T01:35:50;21.90;;;7.87;;
59998;SDS011;45859;51.378;6.736;2023-11-21T01:38:29;19.77;;;8.63;;
59998;SDS011;45859;51.378;6.736;2023-11-21T01:41:04;19.93;;;9.37;;
59998;SDS011;45859;51.378;6.736;2023-11-21T01:43:49;16.27;;;8.00;;
59998;SDS011;45859;51.378;6.736;2023-11-21T01:49:12;21.43;;;8.40;;
59998;SDS011;45859;51.378;6.736;2023-11-21T01:51:52;19.73;;;8.63;;
59998;SDS011;45859;51.378;6.736;2023-11-21T01:54:31;22.73;;;8.40;;
59998;SDS011;45859;51.378;6.736;2023-11-21T01:56:57;22.10;;;8.53;;
59998;SDS011;45859;51.378;6.736;2023-11-21T02:02:22;17.03;;;7.67;;
59998;SDS011;45859;51.378;6.736;2023-11-21T02:05:03;22.33;;;8.90;;
59998;SDS011;45859;51.378;6.736;2023-11-21T02:07:50;18.63;;;8.30;;
59998;SDS011;45859;51.378;6.736;2023-11-21T02:10:31;20.23;;;8.13;;
59998;SDS011;45859;51.378;6.736;2023-11-21T02:16:52;23.17;;;8.53;;
59998;SDS011;45859;51.378;6.736;2023-11-21T02:22:17;17.83;;;8.43;;
59998;SDS011;45859;51.378;6.736;2023-11-21T02:24:58;20.90;;;8.20;;
59998;SDS011;45859;51.378;6.736;2023-11-21T02:27:31;18.83;;;8.70;;
59998;SDS011;45859;51.378;6.736;2023-11-21T02:30:19;21.97;;;7.90;;
59998;SDS011;45859;51.378;6.736;2023-11-21T02:32:57;17.30;;;7.72;;
59998;SDS011;45859;51.378;6.736;2023-11-21T02:35:32;18.58;;;7.28;;
59998;SDS011;45859;51.378;6.736;2023-11-21T02:38:03;18.60;;;7.63;;
59998;SDS011;45859;51.378;6.736;2023-11-21T02:43:51;16.73;;;6.93;;
59998;SDS011;45859;51.378;6.736;2023-11-21T02:46:19;13.33;;;6.07;;
59998;SDS011;45859;51.378;6.736;2023-11-21T02:48:51;20.37;;;6.93;;
59998;SDS011;45859;51.378;6.736;2023-11-21T02:51:22;18.37;;;7.80;;
59998;SDS011;45859;51.378;6.736;2023-11-21T02:54:07;19.63;;;7.17;;
59998;SDS011;45859;51.378;6.736;2023-11-21T02:56:39;22.25;;;7.80;;
59998;SDS011;45859;51.378;6.736;2023-11-21T02:59:05;17.70;;;6.83;;
59998;SDS011;45859;51.378;6.736;2023-11-21T03:01:37;19.70;;;7.03;;
59998;SDS011;45859;51.378;6.736;2023-11-21T03:04:06;28.07;;;18.10;;
59998;SDS011;45859;51.378;6.736;2023-11-21T03:06:32;16.57;;;6.97;;
59998;SDS011;45859;51.378;6.736;2023-11-21T03:09:01;18.77;;;7.90;;
59998;SDS011;45859;51.378;6.736;2023-11-21T03:12:00;26.07;;;8.67;;
59998;SDS011;45859;51.378;6.736;2023-11-21T03:14:27;21.77;;;8.93;;
59998;SDS011;45859;51.378;6.736;2023-11-21T03:19:30;16.53;;;7.03;;
59998;SDS011;45859;51.378;6.736;2023-11-21T03:21:59;13.80;;;6.10;;
59998;SDS011;45859;51.378;6.736;2023-11-21T03:24:40;13.87;;;6.30;;
59998;SDS011;45859;51.378;6.736;2023-11-21T03:27:06;26.03;;;15.60;;
59998;SDS011;45859;51.378;6.736;2023-11-21T03:29:33;22.20;;;14.50;;
59998;SDS011;45859;51.378;6.736;2023-11-21T03:32:18;27.77;;;14.63;;
59998;SDS011;45859;51.378;6.736;2023-11-21T03:38:00;16.13;;;6.03;;
59998;SDS011;45859;51.378;6.736;2023-11-21T03:40:26;12.23;;;5.60;;
59998;SDS011;45859;51.378;6.736;2023-11-21T03:42:55;11.73;;;5.40;;
59998;SDS011;45859;51.378;6.736;2023-11-21T03:45:36;16.30;;;6.67;;
59998;SDS011;45859;51.378;6.736;2023-11-21T03:48:23;19.03;;;6.67;;
59998;SDS011;45859;51.378;6.736;2023-11-21T03:50:58;18.67;;;6.87;;
59998;SDS011;45859;51.378;6.736;2023-11-21T03:53:24;31.27;;;18.67;;
59998;SDS011;45859;51.378;6.736;2023-11-21T03:58:55;17.50;;;7.97;;
59998;SDS011;45859;51.378;6.736;2023-11-21T04:01:30;16.63;;;8.23;;
59998;SDS011;45859;51.378;6.736;2023-11-21T04:04:11;36.90;;;20.30;;
59998;SDS011;45859;51.378;6.736;2023-11-21T04:10:07;10.27;;;5.77;;
59998;SDS011;45859;51.378;6.736;2023-11-21T04:12:52;14.20;;;6.43;;
59998;SDS011;45859;51.378;6.736;2023-11-21T04:15:42;11.55;;;5.50;;
59998;SDS011;45859;51.378;6.736;2023-11-21T04:21:32;13.97;;;6.27;;
59998;SDS011;45859;51.378;6.736;2023-11-21T04:24:31;9.47;;;4.63;;
59998;SDS011;45859;51.378;6.736;2023-11-21T04:30:19;12.93;;;5.90;;
59998;SDS011;45859;51.378;6.736;2023-11-21T04:32:48;10.80;;;5.67;;
59998;SDS011;45859;51.378;6.736;2023-11-21T04:35:17;12.93;;;5.87;;
59998;SDS011;45859;51.378;6.736;2023-11-21T04:38:20;15.70;;;6.40;;
59998;SDS011;45859;51.378;6.736;2023-11-21T04:40:49;16.60;;;5.43;;
59998;SDS011;45859;51.378;6.736;2023-11-21T04:43:18;17.23;;;6.30;;
59998;SDS011;45859;51.378;6.736;2023-11-21T04:49:41;18.87;;;6.40;;
59998;SDS011;45859;51.378;6.736;2023-11-21T04:52:15;14.60;;;5.80;;
59998;SDS011;45859;51.378;6.736;2023-11-21T04:57:38;14.50;;;5.45;;
59998;SDS011;45859;51.378;6.736;2023-11-21T05:00:19;12.43;;;5.33;;
59998;SDS011;45859;51.378;6.736;2023-11-21T05:02:49;17.83;;;6.87;;
59998;SDS011;45859;51.378;6.736;2023-11-21T05:05:27;14.33;;;6.57;;
59998;SDS011;45859;51.378;6.736;2023-11-21T05:07:52;14.00;;;6.03;;
59998;SDS011;45859;51.378;6.736;2023-11-21T05:10:18;13.57;;;6.67;;
59998;SDS011;45859;51.378;6.736;2023-11-21T05:15:35;11.10;;;5.93;;
59998;SDS011;45859;51.378;6.736;2023-11-21T05:18:01;12.70;;;6.83;;
59998;SDS011;45859;51.378;6.736;2023-11-21T05:20:31;12.43;;;5.77;;
59998;SDS011;45859;51.378;6.736;2023-11-21T05:23:31;17.15;;;6.55;;
59998;SDS011;45859;51.378;6.736;2023-11-21T05:25:59;29.83;;;16.80;;
59998;SDS011;45859;51.378;6.736;2023-11-21T05:28:28;16.50;;;6.47;;
59998;SDS011;45859;51.378;6.736;2023-11-21T05:31:09;17.43;;;6.80;;
59998;SDS011;45859;51.378;6.736;2023-11-21T05:33:36;13.73;;;6.13;;
59998;SDS011;45859;51.378;6.736;2023-11-21T05:36:11;14.77;;;6.33;;
59998;SDS011;45859;51.378;6.736;2023-11-21T05:38:43;15.93;;;7.37;;
59998;SDS011;45859;51.378;6.736;2023-11-21T05:41:15;14.80;;;7.00;;
59998;SDS011;45859;51.378;6.736;2023-11-21T05:44:00;17.48;;;7.13;;
59998;SDS011;45859;51.378;6.736;2023-11-21T05:46:34;18.30;;;6.40;;
59998;SDS011;45859;51.378;6.736;2023-11-21T05:49:00;17.00;;;6.63;;
59998;SDS011;45859;51.378;6.736;2023-11-21T05:51:38;15.17;;;6.93;;
59998;SDS011;45859;51.378;6.736;2023-11-21T05:54:28;27.57;;;16.40;;
59998;SDS011;45859;51.378;6.736;2023-11-21T05:56:57;17.17;;;6.27;;
59998;SDS011;45859;51.378;6.736;2023-11-21T05:59:26;20.27;;;6.37;;
59998;SDS011;45859;51.378;6.736;2023-11-21T06:02:07;14.10;;;7.27;;
59998;SDS011;45859;51.378;6.736;2023-11-21T06:04:36;14.57;;;6.30;;
59998;SDS011;45859;51.378;6.736;2023-11-21T06:07:02;25.57;;;9.87;;
59998;SDS011;45859;51.378;6.736;2023-11-21T06:09:29;33.87;;;11.87;;
59998;SDS011;45859;51.378;6.736;2023-11-21T06:12:13;37.33;;;12.37;;
59998;SDS011;45859;51.378;6.736;2023-11-21T06:14:41;40.23;;;12.23;;
59998;SDS011;45859;51.378;6.736;2023-11-21T06:17:22;34.70;;;11.77;;
59998;SDS011;45859;51.378;6.736;2023-11-21T06:19:53;41.80;;;13.57;;
59998;SDS011;45859;51.378;6.736;2023-11-21T06:22:19;42.83;;;12.77;;
59998;SDS011;45859;51.378;6.736;2023-11-21T06:24:45;49.37;;;13.93;;
59998;SDS011;45859;51.378;6.736;2023-11-21T06:27:13;101.87;;;38.17;;
59998;SDS011;45859;51.378;6.736;2023-11-21T06:29:42;110.97;;;39.13;;
59998;SDS011;45859;51.378;6.736;2023-11-21T06:32:08;42.13;;;12.90;;
59998;SDS011;45859;51.378;6.736;2023-11-21T06:34:37;50.20;;;13.47;;
59998;SDS011;45859;51.378;6.736;2023-11-21T06:37:09;42.77;;;12.37;;
59998;SDS011;45859;51.378;6.736;2023-11-21T06:39:35;45.47;;;15.53;;
59998;SDS011;45859;51.378;6.736;2023-11-21T06:42:03;49.43;;;14.07;;
59998;SDS011;45859;51.378;6.736;2023-11-21T06:44:29;51.60;;;14.13;;
59998;SDS011;45859;51.378;6.736;2023-11-21T06:46:55;101.77;;;37.47;;
59998;SDS011;45859;51.378;6.736;2023-11-21T06:49:24;43.00;;;12.67;;
59998;SDS011;45859;51.378;6.736;2023-11-21T06:51:50;44.10;;;12.57;;
59998;SDS011;45859;51.378;6.736;2023-11-21T06:54:20;46.13;;;13.85;;
59998;SDS011;45859;51.378;6.736;2023-11-21T06:56:46;111.87;;;37.73;;
59998;SDS011;45859;51.378;6.736;2023-11-21T06:59:12;42.53;;;12.43;;
59998;SDS011;45859;51.378;6.736;2023-11-21T07:01:41;37.83;;;11.87;;
59998;SDS011;45859;51.378;6.736;2023-11-21T07:04:08;94.90;;;35.53;;
59998;SDS011;45859;51.378;6.736;2023-11-21T07:06:50;85.57;;;35.10;;
59998;SDS011;45859;51.378;6.736;2023-11-21T07:09:16;41.57;;;12.60;;
59998;SDS011;45859;51.378;6.736;2023-11-21T07:11:42;39.23;;;12.47;;
59998;SDS011;45859;51.378;6.736;2023-11-21T07:14:08;37.27;;;12.77;;
59998;SDS011;45859;51.378;6.736;2023-11-21T07:16:37;81.97;;;33.60;;
59998;SDS011;45859;51.378;6.736;2023-11-21T07:19:06;39.07;;;10.77;;
59998;SDS011;45859;51.378;6.736;2023-11-21T07:21:32;38.73;;;12.30;;
59998;SDS011;45859;51.378;6.736;2023-11-21T07:24:07;70.70;;;34.23;;
59998;SDS011;45859;51.378;6.736;2023-11-21T07:26:34;76.03;;;32.93;;
59998;SDS011;45859;51.378;6.736;2023-11-21T07:29:00;40.33;;;12.73;;
59998;SDS011;45859;51.378;6.736;2023-11-21T07:31:29;62.57;;;31.40;;
59998;SDS011;45859;51.378;6.736;2023-11-21T07:33:59;40.70;;;12.60;;
59998;SDS011;45859;51.378;6.736;2023-11-21T07:36:25;66.47;;;31.87;;
59998;SDS011;45859;51.378;6.736;2023-11-21T07:38:51;67.83;;;31.13;;
59998;SDS011;45859;51.378;6.736;2023-11-21T07:41:18;33.63;;;12.63;;
59998;SDS011;45859;51.378;6.736;2023-11-21T07:43:44;35.50;;;11.13;;
59998;SDS011;45859;51.378;6.736;2023-11-21T07:46:11;66.17;;;30.83;;
59998;SDS011;45859;51.378;6.736;2023-11-21T07:48:41;65.50;;;32.00;;
59998;SDS011;45859;51.378;6.736;2023-11-21T07:51:07;32.30;;;11.70;;
59998;SDS011;45859;51.378;6.736;2023-11-21T07:53:34;33.83;;;11.40;;
59998;SDS011;45859;51.378;6.736;2023-11-21T07:56:04;35.33;;;11.27;;
59998;SDS011;45859;51.378;6.736;2023-11-21T07:58:31;38.40;;;13.67;;
59998;SDS011;45859;51.378;6.736;2023-11-21T08:01:00;67.67;;;32.33;;
59998;SDS011;45859;51.378;6.736;2023-11-21T08:03:40;40.23;;;13.07;;
59998;SDS011;45859;51.378;6.736;2023-11-21T08:06:08;40.47;;;13.60;;
59998;SDS011;45859;51.378;6.736;2023-11-21T08:08:34;47.13;;;13.37;;
59998;SDS011;45859;51.378;6.736;2023-11-21T08:11:07;37.90;;;13.20;;
59998;SDS011;45859;51.378;6.736;2023-11-21T08:13:35;37.60;;;12.47;;
59998;SDS011;45859;51.378;6.736;2023-11-21T08:16:01;42.80;;;14.10;;
59998;SDS011;45859;51.378;6.736;2023-11-21T08:18:29;41.07;;;14.33;;
59998;SDS011;45859;51.378;6.736;2023-11-21T08:20:59;59.73;;;31.63;;
59998;SDS011;45859;51.378;6.736;2023-11-21T08:23:25;38.70;;;11.95;;
59998;SDS011;45859;51.378;6.736;2023-11-21T08:25:52;38.17;;;12.27;;
59998;SDS011;45859;51.378;6.736;2023-11-21T08:28:18;36.10;;;12.00;;
59998;SDS011;45859;51.378;6.736;2023-11-21T08:33:37;45.13;;;24.03;;
59998;SDS011;45859;51.378;6.736;2023-11-21T08:36:12;37.77;;;22.73;;
59998;SDS011;45859;51.378;6.736;2023-11-21T08:39:12;26.25;;;9.18;;
59998;SDS011;45859;51.378;6.736;2023-11-21T08:41:44;36.17;;;21.77;;
59998;SDS011;45859;51.378;6.736;2023-11-21T08:44:25;40.97;;;22.67;;
59998;SDS011;45859;51.378;6.736;2023-11-21T08:46:50;39.80;;;21.97;;
59998;SDS011;45859;51.378;6.736;2023-11-21T08:49:19;35.17;;;21.47;;
59998;SDS011;45859;51.378;6.736;2023-11-21T08:51:45;25.77;;;11.30;;
59998;SDS011;45859;51.378;6.736;2023-11-21T08:54:11;36.80;;;21.77;;
59998;SDS011;45859;51.378;6.736;2023-11-21T08:56:38;24.00;;;10.20;;
59998;SDS011;45859;51.378;6.736;2023-11-21T08:59:04;29.00;;;9.50;;
59998;SDS011;45859;51.378;6.736;2023-11-21T09:01:29;23.73;;;9.57;;
59998;SDS011;45859;51.378;6.736;2023-11-21T09:04:01;28.20;;;10.77;;
59998;SDS011;45859;51.378;6.736;2023-11-21T09:06:37;42.07;;;23.33;;
59998;SDS011;45859;51.378;6.736;2023-11-21T09:09:08;27.37;;;9.97;;
59998;SDS011;45859;51.378;6.736;2023-11-21T09:11:35;26.77;;;10.33;;
59998;SDS011;45859;51.378;6.736;2023-11-21T09:14:02;27.60;;;10.47;;
59998;SDS011;45859;51.378;6.736;2023-11-21T09:16:37;29.10;;;9.83;;
59998;SDS011;45859;51.378;6.736;2023-11-21T09:19:04;27.30;;;9.37;;
59998;SDS011;45859;51.378;6.736;2023-11-21T09:21:31;49.97;;;25.67;;
59998;SDS011;45859;51.378;6.736;2023-11-21T09:24:02;40.60;;;22.73;;
59998;SDS011;45859;51.378;6.736;2023-11-21T09:26:37;42.97;;;22.93;;
59998;SDS011;45859;51.378;6.736;2023-11-21T09:29:05;43.60;;;25.03;;
59998;SDS011;45859;51.378;6.736;2023-11-21T09:31:30;49.87;;;26.03;;
59998;SDS011;45859;51.378;6.736;2023-11-21T09:33:59;46.20;;;24.67;;
59998;SDS011;45859;51.378;6.736;2023-11-21T09:36:25;31.77;;;9.50;;
59998;SDS011;45859;51.378;6.736;2023-11-21T09:38:56;46.33;;;24.73;;
59998;SDS011;45859;51.378;6.736;2023-11-21T09:44:40;47.13;;;24.77;;
59998;SDS011;45859;51.378;6.736;2023-11-21T09:47:28;44.83;;;24.63;;
59998;SDS011;45859;51.378;6.736;2023-11-21T09:49:54;48.07;;;24.57;;
59998;SDS011;45859;51.378;6.736;2023-11-21T09:52:28;41.67;;;23.77;;
59998;SDS011;45859;51.378;6.736;2023-11-21T09:55:04;41.97;;;23.43;;
59998;SDS011;45859;51.378;6.736;2023-11-21T09:57:32;41.90;;;23.27;;
59998;SDS011;45859;51.378;6.736;2023-11-21T10:00:02;26.37;;;11.10;;
59998;SDS011;45859;51.378;6.736;2023-11-21T10:02:43;32.50;;;10.13;;
59998;SDS011;45859;51.378;6.736;2023-11-21T10:05:09;31.47;;;10.33;;
59998;SDS011;45859;51.378;6.736;2023-11-21T10:07:36;27.57;;;9.10;;
59998;SDS011;45859;51.378;6.736;2023-11-21T10:10:08;29.87;;;10.10;;
59998;SDS011;45859;51.378;6.736;2023-11-21T10:12:35;25.80;;;10.10;;
59998;SDS011;45859;51.378;6.736;2023-11-21T10:15:01;25.03;;;9.93;;
59998;SDS011;45859;51.378;6.736;2023-11-21T10:18:06;42.90;;;22.90;;
59998;SDS011;45859;51.378;6.736;2023-11-21T10:20:37;41.20;;;22.00;;
59998;SDS011;45859;51.378;6.736;2023-11-21T10:23:11;43.50;;;21.80;;
59998;SDS011;45859;51.378;6.736;2023-11-21T10:25:46;41.87;;;20.33;;
59998;SDS011;45859;51.378;6.736;2023-11-21T10:28:28;37.43;;;20.37;;
59998;SDS011;45859;51.378;6.736;2023-11-21T10:31:12;35.17;;;20.10;;
59998;SDS011;45859;51.378;6.736;2023-11-21T10:36:59;36.07;;;19.43;;
59998;SDS011;45859;51.378;6.736;2023-11-21T10:39:48;41.70;;;21.37;;
59998;SDS011;45859;51.378;6.736;2023-11-21T10:42:17;32.97;;;19.87;;
59998;SDS011;45859;51.378;6.736;2023-11-21T10:44:45;38.57;;;20.83;;
59998;SDS011;45859;51.378;6.736;2023-11-21T10:47:12;37.80;;;20.27;;
59998;SDS011;45859;51.378;6.736;2023-11-21T10:49:44;36.63;;;20.73;;
59998;SDS011;45859;51.378;6.736;2023-11-21T10:52:41;38.40;;;19.83;;
59998;SDS011;45859;51.378;6.736;2023-11-21T10:55:32;33.77;;;18.63;;
59998;SDS011;45859;51.378;6.736;2023-11-21T10:57:59;39.05;;;20.50;;
59998;SDS011;45859;51.378;6.736;2023-11-21T11:00:27;34.60;;;20.30;;
59998;SDS011;45859;51.378;6.736;2023-11-21T11:02:57;33.87;;;19.53;;
59998;SDS011;45859;51.378;6.736;2023-11-21T11:05:27;34.03;;;20.20;;
59998;SDS011;45859;51.378;6.736;2023-11-21T11:08:16;33.90;;;21.07;;
59998;SDS011;45859;51.378;6.736;2023-11-21T11:10:55;35.53;;;21.43;;
59998;SDS011;45859;51.378;6.736;2023-11-21T11:13:21;33.77;;;20.57;;
59998;SDS011;45859;51.378;6.736;2023-11-21T11:16:00;34.07;;;19.53;;
59998;SDS011;45859;51.378;6.736;2023-11-21T11:18:32;37.63;;;20.27;;
59998;SDS011;45859;51.378;6.736;2023-11-21T11:33:42;35.13;;;20.23;;
59998;SDS011;45859;51.378;6.736;2023-11-21T11:36:26;31.30;;;19.30;;
59998;SDS011;45859;51.378;6.736;2023-11-21T11:38:56;32.15;;;19.55;;
59998;SDS011;45859;51.378;6.736;2023-11-21T11:44:02;33.97;;;20.67;;
59998;SDS011;45859;51.378;6.736;2023-11-21T11:46:45;36.23;;;20.93;;
59998;SDS011;45859;51.378;6.736;2023-11-21T11:49:34;36.23;;;20.07;;
59998;SDS011;45859;51.378;6.736;2023-11-21T11:55:17;33.83;;;20.90;;
59998;SDS011;45859;51.378;6.736;2023-11-21T12:00:36;38.63;;;23.90;;
59998;SDS011;45859;51.378;6.736;2023-11-21T12:03:13;40.80;;;23.30;;
59998;SDS011;45859;51.378;6.736;2023-11-21T12:05:39;38.07;;;22.43;;
59998;SDS011;45859;51.378;6.736;2023-11-21T12:08:24;41.13;;;25.03;;
59998;SDS011;45859;51.378;6.736;2023-11-21T12:10:57;40.90;;;24.27;;
59998;SDS011;45859;51.378;6.736;2023-11-21T12:13:36;44.37;;;26.73;;
59998;SDS011;45859;51.378;6.736;2023-11-21T12:16:08;47.83;;;28.63;;
59998;SDS011;45859;51.378;6.736;2023-11-21T12:18:58;51.37;;;29.57;;
59998;SDS011;45859;51.378;6.736;2023-11-21T12:21:30;59.73;;;32.83;;
59998;SDS011;45859;51.378;6.736;2023-11-21T12:24:03;58.60;;;32.03;;
59998;SDS011;45859;51.378;6.736;2023-11-21T12:26:44;56.50;;;31.33;;
59998;SDS011;45859;51.378;6.736;2023-11-21T12:29:42;58.57;;;32.00;;
59998;SDS011;45859;51.378;6.736;2023-11-21T12:32:15;55.20;;;30.07;;
59998;SDS011;45859;51.378;6.736;2023-11-21T12:34:50;60.97;;;33.20;;
59998;SDS011;45859;51.378;6.736;2023-11-21T12:37:20;59.40;;;33.37;;
59998;SDS011;45859;51.378;6.736;2023-11-21T12:40:01;56.67;;;33.60;;
59998;SDS011;45859;51.378;6.736;2023-11-21T12:43:04;60.80;;;34.27;;
59998;SDS011;45859;51.378;6.736;2023-11-21T12:49:06;67.00;;;37.67;;
59998;SDS011;45859;51.378;6.736;2023-11-21T12:52:02;61.60;;;35.17;;
59998;SDS011;45859;51.378;6.736;2023-11-21T12:54:34;68.50;;;36.30;;
59998;SDS011;45859;51.378;6.736;2023-11-21T12:57:25;70.13;;;36.67;;
59998;SDS011;45859;51.378;6.736;2023-11-21T13:00:08;63.80;;;34.80;;
59998;SDS011;45859;51.378;6.736;2023-11-21T13:03:18;67.40;;;35.40;;
59998;SDS011;45859;51.378;6.736;2023-11-21T13:05:58;76.00;;;37.37;;
59998;SDS011;45859;51.378;6.736;2023-11-21T13:08:34;68.13;;;35.83;;
59998;SDS011;45859;51.378;6.736;2023-11-21T13:11:18;74.63;;;38.20;;
59998;SDS011;45859;51.378;6.736;2023-11-21T13:16:31;63.03;;;36.10;;
59998;SDS011;45859;51.378;6.736;2023-11-21T13:19:07;62.73;;;33.33;;
59998;SDS011;45859;51.378;6.736;2023-11-21T13:24:26;50.37;;;30.03;;
59998;SDS011;45859;51.378;6.736;2023-11-21T13:29:40;35.10;;;11.60;;
59998;SDS011;45859;51.378;6.736;2023-11-21T13:32:44;42.90;;;26.10;;
59998;SDS011;45859;51.378;6.736;2023-11-21T13:35:16;44.23;;;26.30;;
59998;SDS011;45859;51.378;6.736;2023-11-21T13:38:11;43.60;;;26.10;;
59998;SDS011;45859;51.378;6.736;2023-11-21T13:43:35;23.20;;;9.13;;
59998;SDS011;45859;51.378;6.736;2023-11-21T13:46:08;15.93;;;6.77;;
59998;SDS011;45859;51.378;6.736;2023-11-21T13:49:01;11.38;;;5.85;;
59998;SDS011;45859;51.378;6.736;2023-11-21T13:51:37;12.90;;;5.67;;
59998;SDS011;45859;51.378;6.736;2023-11-21T13:54:17;9.80;;;4.90;;
59998;SDS011;45859;51.378;6.736;2023-11-21T13:57:10;18.83;;;12.27;;
59998;SDS011;45859;51.378;6.736;2023-11-21T13:59:39;18.10;;;12.17;;
59998;SDS011;45859;51.378;6.736;2023-11-21T14:02:05;17.70;;;11.93;;
59998;SDS011;45859;51.378;6.736;2023-11-21T14:04:43;16.83;;;11.80;;
59998;SDS011;45859;51.378;6.736;2023-11-21T14:07:21;17.30;;;12.03;;
59998;SDS011;45859;51.378;6.736;2023-11-21T14:10:07;20.10;;;12.47;;
59998;SDS011;45859;51.378;6.736;2023-11-21T14:12:47;17.67;;;12.90;;
59998;SDS011;45859;51.378;6.736;2023-11-21T14:15:30;15.40;;;5.50;;
59998;SDS011;45859;51.378;6.736;2023-11-21T14:18:12;11.20;;;5.00;;
59998;SDS011;45859;51.378;6.736;2023-11-21T14:21:04;13.73;;;5.80;;
59998;SDS011;45859;51.378;6.736;2023-11-21T14:24:07;11.53;;;5.67;;
59998;SDS011;45859;51.378;6.736;2023-11-21T14:26:47;21.10;;;14.37;;
59998;SDS011;45859;51.378;6.736;2023-11-21T14:29:16;16.97;;;6.73;;
59998;SDS011;45859;51.378;6.736;2023-11-21T14:31:47;15.60;;;6.63;;
59998;SDS011;45859;51.378;6.736;2023-11-21T14:34:33;21.03;;;14.93;;
59998;SDS011;45859;51.378;6.736;2023-11-21T14:40:17;23.57;;;15.67;;
59998;SDS011;45859;51.378;6.736;2023-11-21T14:42:59;25.07;;;16.63;;
59998;SDS011;45859;51.378;6.736;2023-11-21T14:45:44;21.17;;;15.77;;
59998;SDS011;45859;51.378;6.736;2023-11-21T14:48:31;22.87;;;16.17;;
59998;SDS011;45859;51.378;6.736;2023-11-21T14:51:30;27.57;;;16.70;;
59998;SDS011;45859;51.378;6.736;2023-11-21T14:53:57;12.73;;;6.60;;
59998;SDS011;45859;51.378;6.736;2023-11-21T14:56:34;17.40;;;5.73;;
59998;SDS011;45859;51.378;6.736;2023-11-21T14:59:18;12.33;;;5.63;;
59998;SDS011;45859;51.378;6.736;2023-11-21T15:04:42;12.37;;;5.97;;
59998;SDS011;45859;51.378;6.736;2023-11-21T15:07:15;12.23;;;5.38;;
59998;SDS011;45859;51.378;6.736;2023-11-21T15:13:08;19.97;;;13.70;;
59998;SDS011;45859;51.378;6.736;2023-11-21T15:15:41;11.47;;;4.67;;
59998;SDS011;45859;51.378;6.736;2023-11-21T15:18:10;19.88;;;6.78;;
59998;SDS011;45859;51.378;6.736;2023-11-21T15:20:42;12.13;;;5.83;;
59998;SDS011;45859;51.378;6.736;2023-11-21T15:23:14;19.80;;;5.10;;
59998;SDS011;45859;51.378;6.736;2023-11-21T15:26:04;17.17;;;5.07;;
59998;SDS011;45859;51.378;6.736;2023-11-21T15:28:42;11.23;;;4.93;;
59998;SDS011;45859;51.378;6.736;2023-11-21T15:31:08;12.13;;;4.87;;
59998;SDS011;45859;51.378;6.736;2023-11-21T15:36:33;11.43;;;5.37;;
59998;SDS011;45859;51.378;6.736;2023-11-21T15:39:08;20.17;;;14.10;;
59998;SDS011;45859;51.378;6.736;2023-11-21T15:41:37;16.23;;;6.13;;
59998;SDS011;45859;51.378;6.736;2023-11-21T15:44:18;8.97;;;3.80;;
59998;SDS011;45859;51.378;6.736;2023-11-21T15:46:58;14.73;;;11.83;;
59998;SDS011;45859;51.378;6.736;2023-11-21T15:49:24;16.90;;;11.07;;
59998;SDS011;45859;51.378;6.736;2023-11-21T15:51:52;12.90;;;5.70;;
59998;SDS011;45859;51.378;6.736;2023-11-21T15:54:24;10.20;;;5.07;;
59998;SDS011;45859;51.378;6.736;2023-11-21T15:56:54;18.47;;;12.47;;
59998;SDS011;45859;51.378;6.736;2023-11-21T15:59:25;14.67;;;4.93;;
59998;SDS011;45859;51.378;6.736;2023-11-21T16:02:04;11.33;;;4.97;;
59998;SDS011;45859;51.378;6.736;2023-11-21T16:04:30;9.33;;;4.30;;
59998;SDS011;45859;51.378;6.736;2023-11-21T16:07:04;9.20;;;3.57;;
59998;SDS011;45859;51.378;6.736;2023-11-21T16:09:32;16.23;;;4.03;;
59998;SDS011;45859;51.378;6.736;2023-11-21T16:12:05;15.33;;;10.27;;
59998;SDS011;45859;51.378;6.736;2023-11-21T16:14:44;16.23;;;11.43;;
59998;SDS011;45859;51.378;6.736;2023-11-21T16:17:15;10.13;;;4.70;;
59998;SDS011;45859;51.378;6.736;2023-11-21T16:20:04;9.70;;;5.03;;
59998;SDS011;45859;51.378;6.736;2023-11-21T16:22:47;9.38;;;4.82;;
59998;SDS011;45859;51.378;6.736;2023-11-21T16:25:16;17.50;;;12.60;;
59998;SDS011;45859;51.378;6.736;2023-11-21T16:27:45;12.63;;;5.20;;
59998;SDS011;45859;51.378;6.736;2023-11-21T16:30:23;10.67;;;4.80;;
59998;SDS011;45859;51.378;6.736;2023-11-21T16:32:55;10.03;;;5.07;;
59998;SDS011;45859;51.378;6.736;2023-11-21T16:35:22;19.53;;;14.73;;
59998;SDS011;45859;51.378;6.736;2023-11-21T16:37:51;14.30;;;5.77;;
59998;SDS011;45859;51.378;6.736;2023-11-21T16:40:29;20.70;;;8.00;;
59998;SDS011;45859;51.378;6.736;2023-11-21T16:45:44;10.47;;;5.33;;
59998;SDS011;45859;51.378;6.736;2023-11-21T16:48:31;9.20;;;4.60;;
59998;SDS011;45859;51.378;6.736;2023-11-21T16:51:00;17.47;;;13.83;;
59998;SDS011;45859;51.378;6.736;2023-11-21T16:56:16;5.68;;;3.22;;
59998;SDS011;45859;51.378;6.736;2023-11-21T17:04:04;11.93;;;7.20;;
59998;SDS011;45859;51.378;6.736;2023-11-21T17:07:00;10.73;;;5.33;;
59998;SDS011;45859;51.378;6.736;2023-11-21T17:09:29;13.70;;;6.17;;
59998;SDS011;45859;51.378;6.736;2023-11-21T17:11:58;12.97;;;5.87;;
59998;SDS011;45859;51.378;6.736;2023-11-21T17:19:42;9.07;;;4.83;;